Agra, Kansas
Current Conditions -  °F | °C
As of 1:53 PM on Friday 28 Nov 2014 (Local Time) from KHLC Reporting Station
Clear Clear  
Wind Chill: 76°   Ceiling: Unl
Heat Index: 76°   Visibility: 10mi
Dew Point: 23°   Wind: 16mph
Humidity: 14%   Direction: 220°SW
Pressure: 29.75"   Gusts: NA
Location:  39.76°N, 99.12°W
Report Text: KHLC 281953Z AUTO 22014KT 10SM CLR 24/M05 A2975 RMK AO2 SLP066 T02441050
Loading
Personal Weather Stations






























Interactive Weather Map New forecast layout! Learn more

10-Day Weather Forecast

Advertisements
Track Severe Weather on mobile